sensor_id;sensor_type;location;lat;lon;timestamp;temperature;humidity
26707;DHT22;14319;49.422;10.934;2023-06-22T00:01:39;20.00;96.20
26707;DHT22;14319;49.422;10.934;2023-06-22T00:03:42;19.90;97.50
26707;DHT22;14319;49.422;10.934;2023-06-22T00:05:43;20.00;96.50
26707;DHT22;14319;49.422;10.934;2023-06-22T00:07:43;19.90;96.90
26707;DHT22;14319;49.422;10.934;2023-06-22T00:09:44;20.00;96.70
26707;DHT22;14319;49.422;10.934;2023-06-22T00:11:45;20.00;96.70
26707;DHT22;14319;49.422;10.934;2023-06-22T00:13:45;20.00;96.70
26707;DHT22;14319;49.422;10.934;2023-06-22T00:15:47;20.00;97.00
26707;DHT22;14319;49.422;10.934;2023-06-22T00:17:49;20.00;97.30
26707;DHT22;14319;49.422;10.934;2023-06-22T00:19:50;20.00;97.20
26707;DHT22;14319;49.422;10.934;2023-06-22T00:21:53;19.70;96.50
26707;DHT22;14319;49.422;10.934;2023-06-22T00:23:54;19.70;97.00
26707;DHT22;14319;49.422;10.934;2023-06-22T00:25:55;19.60;98.00
26707;DHT22;14319;49.422;10.934;2023-06-22T00:27:56;19.60;98.00
26707;DHT22;14319;49.422;10.934;2023-06-22T00:29:56;19.80;98.50
26707;DHT22;14319;49.422;10.934;2023-06-22T00:31:57;19.90;98.20
26707;DHT22;14319;49.422;10.934;2023-06-22T00:33:57;19.90;98.00
26707;DHT22;14319;49.422;10.934;2023-06-22T00:35:58;20.00;98.10
26707;DHT22;14319;49.422;10.934;2023-06-22T00:37:59;20.10;98.00
26707;DHT22;14319;49.422;10.934;2023-06-22T00:40:05;20.10;97.80
26707;DHT22;14319;49.422;10.934;2023-06-22T00:42:06;20.10;97.60
26707;DHT22;14319;49.422;10.934;2023-06-22T00:44:06;20.10;97.50
26707;DHT22;14319;49.422;10.934;2023-06-22T00:46:09;20.10;97.30
26707;DHT22;14319;49.422;10.934;2023-06-22T00:48:12;20.10;97.70
26707;DHT22;14319;49.422;10.934;2023-06-22T00:50:21;20.00;96.90
26707;DHT22;14319;49.422;10.934;2023-06-22T00:52:23;19.40;97.70
26707;DHT22;14319;49.422;10.934;2023-06-22T00:54:28;18.90;99.90
26707;DHT22;14319;49.422;10.934;2023-06-22T00:56:29;19.00;99.90
26707;DHT22;14319;49.422;10.934;2023-06-22T00:58:30;19.00;99.90
26707;DHT22;14319;49.422;10.934;2023-06-22T01:00:31;19.00;98.70
26707;DHT22;14319;49.422;10.934;2023-06-22T01:02:33;18.80;98.70
26707;DHT22;14319;49.422;10.934;2023-06-22T01:04:36;19.00;98.80
26707;DHT22;14319;49.422;10.934;2023-06-22T01:06:45;19.10;97.60
26707;DHT22;14319;49.422;10.934;2023-06-22T01:08:53;19.10;97.40
26707;DHT22;14319;49.422;10.934;2023-06-22T01:11:16;19.10;97.60
26707;DHT22;14319;49.422;10.934;2023-06-22T01:15:47;19.20;97.80
26707;DHT22;14319;49.422;10.934;2023-06-22T01:17:52;19.20;97.30
26707;DHT22;14319;49.422;10.934;2023-06-22T01:19:57;19.30;97.50
26707;DHT22;14319;49.422;10.934;2023-06-22T01:21:58;19.20;97.50
26707;DHT22;14319;49.422;10.934;2023-06-22T01:24:26;19.20;97.30
26707;DHT22;14319;49.422;10.934;2023-06-22T01:28:59;19.20;97.80
26707;DHT22;14319;49.422;10.934;2023-06-22T01:31:02;19.20;98.60
26707;DHT22;14319;49.422;10.934;2023-06-22T01:33:07;19.20;98.60
26707;DHT22;14319;49.422;10.934;2023-06-22T01:35:10;19.40;99.10
26707;DHT22;14319;49.422;10.934;2023-06-22T01:37:11;19.40;98.80
26707;DHT22;14319;49.422;10.934;2023-06-22T01:39:13;19.50;98.70
26707;DHT22;14319;49.422;10.934;2023-06-22T01:41:15;19.50;98.10
26707;DHT22;14319;49.422;10.934;2023-06-22T01:43:16;19.50;98.90
26707;DHT22;14319;49.422;10.934;2023-06-22T01:45:18;19.60;99.20
26707;DHT22;14319;49.422;10.934;2023-06-22T01:47:20;19.60;97.90
26707;DHT22;14319;49.422;10.934;2023-06-22T01:49:21;19.60;98.50
26707;DHT22;14319;49.422;10.934;2023-06-22T01:51:22;19.60;98.50
26707;DHT22;14319;49.422;10.934;2023-06-22T01:53:23;19.70;98.40
26707;DHT22;14319;49.422;10.934;2023-06-22T01:55:26;19.60;98.50
26707;DHT22;14319;49.422;10.934;2023-06-22T01:57:27;19.70;98.10
26707;DHT22;14319;49.422;10.934;2023-06-22T02:00:00;19.70;98.60
26707;DHT22;14319;49.422;10.934;2023-06-22T02:02:06;19.70;97.90
26707;DHT22;14319;49.422;10.934;2023-06-22T02:04:21;19.60;97.50
26707;DHT22;14319;49.422;10.934;2023-06-22T02:06:29;19.60;98.20
26707;DHT22;14319;49.422;10.934;2023-06-22T02:08:50;19.50;97.30
26707;DHT22;14319;49.422;10.934;2023-06-22T02:10:53;19.20;98.20
26707;DHT22;14319;49.422;10.934;2023-06-22T02:12:57;19.00;97.70
26707;DHT22;14319;49.422;10.934;2023-06-22T02:14:58;18.70;97.80
26707;DHT22;14319;49.422;10.934;2023-06-22T02:17:01;18.70;99.10
26707;DHT22;14319;49.422;10.934;2023-06-22T02:19:02;18.90;98.80
26707;DHT22;14319;49.422;10.934;2023-06-22T02:21:08;18.90;98.50
26707;DHT22;14319;49.422;10.934;2023-06-22T02:23:09;18.70;99.70
26707;DHT22;14319;49.422;10.934;2023-06-22T02:25:09;18.70;98.90
26707;DHT22;14319;49.422;10.934;2023-06-22T02:27:10;18.60;99.70
26707;DHT22;14319;49.422;10.934;2023-06-22T02:29:11;18.60;99.50
26707;DHT22;14319;49.422;10.934;2023-06-22T02:31:12;18.70;99.20
26707;DHT22;14319;49.422;10.934;2023-06-22T02:33:12;18.70;99.60
26707;DHT22;14319;49.422;10.934;2023-06-22T02:35:13;18.70;99.90
26707;DHT22;14319;49.422;10.934;2023-06-22T02:37:14;18.70;99.90
26707;DHT22;14319;49.422;10.934;2023-06-22T02:39:20;18.80;99.90
26707;DHT22;14319;49.422;10.934;2023-06-22T02:41:21;18.90;99.90
26707;DHT22;14319;49.422;10.934;2023-06-22T02:43:23;18.90;99.60
26707;DHT22;14319;49.422;10.934;2023-06-22T02:45:23;18.30;99.90
26707;DHT22;14319;49.422;10.934;2023-06-22T02:47:25;18.00;99.90
26707;DHT22;14319;49.422;10.934;2023-06-22T02:49:26;17.70;99.90
26707;DHT22;14319;49.422;10.934;2023-06-22T02:51:27;17.60;99.90
26707;DHT22;14319;49.422;10.934;2023-06-22T02:53:27;17.60;99.90
26707;DHT22;14319;49.422;10.934;2023-06-22T02:55:28;17.60;99.90
26707;DHT22;14319;49.422;10.934;2023-06-22T02:57:31;17.60;99.90
26707;DHT22;14319;49.422;10.934;2023-06-22T02:59:32;17.60;99.90
26707;DHT22;14319;49.422;10.934;2023-06-22T03:01:39;17.60;99.90
26707;DHT22;14319;49.422;10.934;2023-06-22T03:03:42;17.70;99.90
26707;DHT22;14319;49.422;10.934;2023-06-22T03:05:43;17.90;99.90
26707;DHT22;14319;49.422;10.934;2023-06-22T03:07:44;17.90;99.90
26707;DHT22;14319;49.422;10.934;2023-06-22T03:09:45;18.00;99.90
26707;DHT22;14319;49.422;10.934;2023-06-22T03:11:46;18.00;99.90
26707;DHT22;14319;49.422;10.934;2023-06-22T03:13:47;18.00;99.90
26707;DHT22;14319;49.422;10.934;2023-06-22T03:15:48;18.10;99.90
26707;DHT22;14319;49.422;10.934;2023-06-22T03:17:48;18.10;99.90
26707;DHT22;14319;49.422;10.934;2023-06-22T03:19:49;18.10;99.90
26707;DHT22;14319;49.422;10.934;2023-06-22T03:21:49;18.00;99.90
26707;DHT22;14319;49.422;10.934;2023-06-22T03:23:50;18.10;99.90
26707;DHT22;14319;49.422;10.934;2023-06-22T03:25:51;18.10;99.90
26707;DHT22;14319;49.422;10.934;2023-06-22T03:27:51;18.20;99.90
26707;DHT22;14319;49.422;10.934;2023-06-22T03:29:52;18.20;99.90
26707;DHT22;14319;49.422;10.934;2023-06-22T03:31:53;18.30;99.90
26707;DHT22;14319;49.422;10.934;2023-06-22T03:33:54;18.40;99.90
26707;DHT22;14319;49.422;10.934;2023-06-22T03:35:57;18.40;99.90
26707;DHT22;14319;49.422;10.934;2023-06-22T03:37:58;18.50;99.90
26707;DHT22;14319;49.422;10.934;2023-06-22T03:39:58;18.50;99.90
26707;DHT22;14319;49.422;10.934;2023-06-22T03:41:59;18.40;99.90
26707;DHT22;14319;49.422;10.934;2023-06-22T03:44:00;18.50;99.90
26707;DHT22;14319;49.422;10.934;2023-06-22T03:46:01;18.60;99.90
26707;DHT22;14319;49.422;10.934;2023-06-22T03:48:01;18.60;99.90
26707;DHT22;14319;49.422;10.934;2023-06-22T03:50:02;18.70;99.90
26707;DHT22;14319;49.422;10.934;2023-06-22T03:52:04;18.70;99.90
26707;DHT22;14319;49.422;10.934;2023-06-22T03:54:05;18.80;99.90
26707;DHT22;14319;49.422;10.934;2023-06-22T03:56:06;18.80;99.90
26707;DHT22;14319;49.422;10.934;2023-06-22T03:58:06;18.90;99.90
26707;DHT22;14319;49.422;10.934;2023-06-22T04:00:07;18.90;99.90
26707;DHT22;14319;49.422;10.934;2023-06-22T04:02:12;18.90;99.90
26707;DHT22;14319;49.422;10.934;2023-06-22T04:04:13;19.00;99.90
26707;DHT22;14319;49.422;10.934;2023-06-22T04:06:14;19.00;99.90
26707;DHT22;14319;49.422;10.934;2023-06-22T04:08:14;19.00;99.90
26707;DHT22;14319;49.422;10.934;2023-06-22T04:10:15;19.00;99.90
26707;DHT22;14319;49.422;10.934;2023-06-22T04:12:16;19.10;99.90
26707;DHT22;14319;49.422;10.934;2023-06-22T04:14:16;19.10;99.90
26707;DHT22;14319;49.422;10.934;2023-06-22T04:16:17;19.20;99.90
26707;DHT22;14319;49.422;10.934;2023-06-22T04:18:17;19.20;99.80
26707;DHT22;14319;49.422;10.934;2023-06-22T04:20:18;19.20;99.30
26707;DHT22;14319;49.422;10.934;2023-06-22T04:22:21;19.10;99.90
26707;DHT22;14319;49.422;10.934;2023-06-22T04:24:22;19.10;99.30
26707;DHT22;14319;49.422;10.934;2023-06-22T04:26:22;19.10;99.90
26707;DHT22;14319;49.422;10.934;2023-06-22T04:28:23;19.10;99.90
26707;DHT22;14319;49.422;10.934;2023-06-22T04:30:24;19.20;99.90
26707;DHT22;14319;49.422;10.934;2023-06-22T04:32:24;19.10;99.70
26707;DHT22;14319;49.422;10.934;2023-06-22T04:34:25;19.00;99.90
26707;DHT22;14319;49.422;10.934;2023-06-22T04:36:28;19.00;99.90
26707;DHT22;14319;49.422;10.934;2023-06-22T04:38:31;18.90;99.90
26707;DHT22;14319;49.422;10.934;2023-06-22T04:40:34;19.00;99.90
26707;DHT22;14319;49.422;10.934;2023-06-22T04:42:37;19.20;99.90
26707;DHT22;14319;49.422;10.934;2023-06-22T04:44:38;19.20;99.70
26707;DHT22;14319;49.422;10.934;2023-06-22T04:46:40;19.30;99.50
26707;DHT22;14319;49.422;10.934;2023-06-22T04:48:41;19.20;99.50
26707;DHT22;14319;49.422;10.934;2023-06-22T04:50:42;19.20;99.90
26707;DHT22;14319;49.422;10.934;2023-06-22T04:52:42;19.20;99.30
26707;DHT22;14319;49.422;10.934;2023-06-22T04:54:43;19.20;99.70
26707;DHT22;14319;49.422;10.934;2023-06-22T04:56:55;19.30;99.80
26707;DHT22;14319;49.422;10.934;2023-06-22T04:58:59;19.40;99.70
26707;DHT22;14319;49.422;10.934;2023-06-22T05:00:59;19.40;99.40
26707;DHT22;14319;49.422;10.934;2023-06-22T05:03:00;19.30;99.90
26707;DHT22;14319;49.422;10.934;2023-06-22T05:05:01;19.10;99.90
26707;DHT22;14319;49.422;10.934;2023-06-22T05:07:07;19.10;99.90
26707;DHT22;14319;49.422;10.934;2023-06-22T05:09:08;19.10;99.90
26707;DHT22;14319;49.422;10.934;2023-06-22T05:11:09;19.20;99.90
26707;DHT22;14319;49.422;10.934;2023-06-22T05:13:09;19.30;99.90
26707;DHT22;14319;49.422;10.934;2023-06-22T05:15:13;19.40;99.90
26707;DHT22;14319;49.422;10.934;2023-06-22T05:17:13;19.50;99.90
26707;DHT22;14319;49.422;10.934;2023-06-22T05:19:14;19.40;99.90
26707;DHT22;14319;49.422;10.934;2023-06-22T05:21:15;19.40;99.90
26707;DHT22;14319;49.422;10.934;2023-06-22T05:23:15;19.40;99.90
26707;DHT22;14319;49.422;10.934;2023-06-22T05:25:16;19.50;99.90
26707;DHT22;14319;49.422;10.934;2023-06-22T05:27:17;19.50;99.90
26707;DHT22;14319;49.422;10.934;2023-06-22T05:29:17;19.50;99.90
26707;DHT22;14319;49.422;10.934;2023-06-22T05:31:18;19.50;99.90
26707;DHT22;14319;49.422;10.934;2023-06-22T05:33:20;19.60;99.90
26707;DHT22;14319;49.422;10.934;2023-06-22T05:35:20;19.70;99.90
26707;DHT22;14319;49.422;10.934;2023-06-22T05:37:21;19.70;99.90
26707;DHT22;14319;49.422;10.934;2023-06-22T05:39:21;19.70;99.90
26707;DHT22;14319;49.422;10.934;2023-06-22T05:41:22;19.70;99.90
26707;DHT22;14319;49.422;10.934;2023-06-22T05:43:23;19.70;99.90
26707;DHT22;14319;49.422;10.934;2023-06-22T05:45:23;19.80;99.90
26707;DHT22;14319;49.422;10.934;2023-06-22T05:47:24;19.80;99.90
26707;DHT22;14319;49.422;10.934;2023-06-22T05:49:24;19.80;99.90
26707;DHT22;14319;49.422;10.934;2023-06-22T05:51:29;19.90;99.90
26707;DHT22;14319;49.422;10.934;2023-06-22T05:53:30;20.00;99.90
26707;DHT22;14319;49.422;10.934;2023-06-22T05:55:31;20.10;99.70
26707;DHT22;14319;49.422;10.934;2023-06-22T05:57:31;20.00;99.30
26707;DHT22;14319;49.422;10.934;2023-06-22T05:59:32;20.10;99.50
26707;DHT22;14319;49.422;10.934;2023-06-22T06:01:32;20.10;99.00
26707;DHT22;14319;49.422;10.934;2023-06-22T06:03:36;20.10;99.10
26707;DHT22;14319;49.422;10.934;2023-06-22T06:05:41;20.20;99.00
26707;DHT22;14319;49.422;10.934;2023-06-22T06:07:42;20.20;99.20
26707;DHT22;14319;49.422;10.934;2023-06-22T06:09:43;20.30;99.80
26707;DHT22;14319;49.422;10.934;2023-06-22T06:11:44;20.30;99.90
26707;DHT22;14319;49.422;10.934;2023-06-22T06:13:44;20.30;99.00
26707;DHT22;14319;49.422;10.934;2023-06-22T06:15:45;20.40;99.10
26707;DHT22;14319;49.422;10.934;2023-06-22T06:17:50;20.40;98.30
26707;DHT22;14319;49.422;10.934;2023-06-22T06:19:51;20.40;98.50
26707;DHT22;14319;49.422;10.934;2023-06-22T06:21:52;20.50;98.50
26707;DHT22;14319;49.422;10.934;2023-06-22T06:23:52;20.60;98.30
26707;DHT22;14319;49.422;10.934;2023-06-22T06:25:53;20.60;97.80
26707;DHT22;14319;49.422;10.934;2023-06-22T06:27:54;20.60;97.60
26707;DHT22;14319;49.422;10.934;2023-06-22T06:29:55;20.60;98.20
26707;DHT22;14319;49.422;10.934;2023-06-22T06:31:55;20.70;98.40
26707;DHT22;14319;49.422;10.934;2023-06-22T06:33:57;20.70;97.50
26707;DHT22;14319;49.422;10.934;2023-06-22T06:35:57;20.80;97.30
26707;DHT22;14319;49.422;10.934;2023-06-22T06:37:58;20.80;97.30
26707;DHT22;14319;49.422;10.934;2023-06-22T06:39:59;20.80;97.20
26707;DHT22;14319;49.422;10.934;2023-06-22T06:41:59;20.90;97.30
26707;DHT22;14319;49.422;10.934;2023-06-22T06:44:00;20.90;97.20
26707;DHT22;14319;49.422;10.934;2023-06-22T06:46:01;21.00;97.50
26707;DHT22;14319;49.422;10.934;2023-06-22T06:48:03;21.00;97.10
26707;DHT22;14319;49.422;10.934;2023-06-22T06:50:05;21.10;97.30
26707;DHT22;14319;49.422;10.934;2023-06-22T06:52:06;21.00;97.40
26707;DHT22;14319;49.422;10.934;2023-06-22T06:54:07;21.10;97.40
26707;DHT22;14319;49.422;10.934;2023-06-22T06:56:07;21.10;97.30
26707;DHT22;14319;49.422;10.934;2023-06-22T06:58:10;21.10;98.20
26707;DHT22;14319;49.422;10.934;2023-06-22T07:00:13;21.20;97.20
26707;DHT22;14319;49.422;10.934;2023-06-22T07:02:15;21.20;96.90
26707;DHT22;14319;49.422;10.934;2023-06-22T07:04:16;21.30;97.40
26707;DHT22;14319;49.422;10.934;2023-06-22T07:06:17;21.30;96.30
26707;DHT22;14319;49.422;10.934;2023-06-22T07:08:17;21.40;95.10
26707;DHT22;14319;49.422;10.934;2023-06-22T07:10:18;21.50;95.70
26707;DHT22;14319;49.422;10.934;2023-06-22T07:12:18;21.50;95.30
26707;DHT22;14319;49.422;10.934;2023-06-22T07:14:19;21.50;94.20
26707;DHT22;14319;49.422;10.934;2023-06-22T07:16:20;21.60;94.10
26707;DHT22;14319;49.422;10.934;2023-06-22T07:18:20;21.70;93.80
26707;DHT22;14319;49.422;10.934;2023-06-22T07:20:21;21.80;94.20
26707;DHT22;14319;49.422;10.934;2023-06-22T07:22:21;21.90;93.80
26707;DHT22;14319;49.422;10.934;2023-06-22T07:24:22;21.90;93.50
26707;DHT22;14319;49.422;10.934;2023-06-22T07:26:23;22.00;93.60
26707;DHT22;14319;49.422;10.934;2023-06-22T07:28:24;22.00;93.20
26707;DHT22;14319;49.422;10.934;2023-06-22T07:30:25;22.00;92.10
26707;DHT22;14319;49.422;10.934;2023-06-22T07:32:25;22.10;91.70
26707;DHT22;14319;49.422;10.934;2023-06-22T07:34:26;22.10;91.30
26707;DHT22;14319;49.422;10.934;2023-06-22T07:36:27;22.20;92.10
26707;DHT22;14319;49.422;10.934;2023-06-22T07:38:29;22.30;90.90
26707;DHT22;14319;49.422;10.934;2023-06-22T07:40:30;22.30;91.30
26707;DHT22;14319;49.422;10.934;2023-06-22T07:42:31;22.50;90.20
26707;DHT22;14319;49.422;10.934;2023-06-22T07:44:33;22.50;90.20
26707;DHT22;14319;49.422;10.934;2023-06-22T07:46:34;22.60;89.20
26707;DHT22;14319;49.422;10.934;2023-06-22T07:48:37;22.60;88.40
26707;DHT22;14319;49.422;10.934;2023-06-22T07:50:38;22.60;88.70
26707;DHT22;14319;49.422;10.934;2023-06-22T07:52:38;22.70;88.40
26707;DHT22;14319;49.422;10.934;2023-06-22T07:54:39;22.80;88.50
26707;DHT22;14319;49.422;10.934;2023-06-22T07:56:39;22.80;88.50
26707;DHT22;14319;49.422;10.934;2023-06-22T07:58:40;22.80;88.40
26707;DHT22;14319;49.422;10.934;2023-06-22T08:00:41;22.90;86.90
26707;DHT22;14319;49.422;10.934;2023-06-22T08:02:43;22.90;87.30
26707;DHT22;14319;49.422;10.934;2023-06-22T08:04:44;23.00;86.30
26707;DHT22;14319;49.422;10.934;2023-06-22T08:06:46;23.00;86.60
26707;DHT22;14319;49.422;10.934;2023-06-22T08:08:46;23.00;86.40
26707;DHT22;14319;49.422;10.934;2023-06-22T08:10:49;23.10;87.50
26707;DHT22;14319;49.422;10.934;2023-06-22T08:12:49;23.20;87.20
26707;DHT22;14319;49.422;10.934;2023-06-22T08:14:51;23.20;86.50
26707;DHT22;14319;49.422;10.934;2023-06-22T08:16:52;23.20;86.70
26707;DHT22;14319;49.422;10.934;2023-06-22T08:18:53;23.30;85.30
26707;DHT22;14319;49.422;10.934;2023-06-22T08:20:53;23.30;84.80
26707;DHT22;14319;49.422;10.934;2023-06-22T08:22:55;23.40;83.10
26707;DHT22;14319;49.422;10.934;2023-06-22T08:24:56;23.50;84.90
26707;DHT22;14319;49.422;10.934;2023-06-22T08:26:56;23.50;84.50
26707;DHT22;14319;49.422;10.934;2023-06-22T08:28:57;23.50;85.90
26707;DHT22;14319;49.422;10.934;2023-06-22T08:30:59;23.50;85.30
26707;DHT22;14319;49.422;10.934;2023-06-22T08:32:59;23.50;83.00
26707;DHT22;14319;49.422;10.934;2023-06-22T08:35:00;23.60;84.50
26707;DHT22;14319;49.422;10.934;2023-06-22T08:37:01;23.60;83.50
26707;DHT22;14319;49.422;10.934;2023-06-22T08:39:01;23.70;84.50
26707;DHT22;14319;49.422;10.934;2023-06-22T08:41:03;23.80;81.40
26707;DHT22;14319;49.422;10.934;2023-06-22T08:43:03;23.80;82.10
26707;DHT22;14319;49.422;10.934;2023-06-22T08:45:04;23.80;82.40
26707;DHT22;14319;49.422;10.934;2023-06-22T08:47:05;23.90;83.00
26707;DHT22;14319;49.422;10.934;2023-06-22T08:49:06;23.90;83.20
26707;DHT22;14319;49.422;10.934;2023-06-22T08:51:07;24.00;81.70
26707;DHT22;14319;49.422;10.934;2023-06-22T08:53:09;24.00;82.30
26707;DHT22;14319;49.422;10.934;2023-06-22T08:55:10;24.00;84.10
26707;DHT22;14319;49.422;10.934;2023-06-22T08:57:11;24.10;83.60
26707;DHT22;14319;49.422;10.934;2023-06-22T08:59:11;24.10;80.30
26707;DHT22;14319;49.422;10.934;2023-06-22T09:01:12;24.20;81.60
26707;DHT22;14319;49.422;10.934;2023-06-22T09:03:13;24.20;79.90
26707;DHT22;14319;49.422;10.934;2023-06-22T09:05:14;24.20;80.80
26707;DHT22;14319;49.422;10.934;2023-06-22T09:07:14;24.40;79.20
26707;DHT22;14319;49.422;10.934;2023-06-22T09:09:22;24.40;82.10
26707;DHT22;14319;49.422;10.934;2023-06-22T09:11:23;24.50;80.20
26707;DHT22;14319;49.422;10.934;2023-06-22T09:13:23;24.50;80.20
26707;DHT22;14319;49.422;10.934;2023-06-22T09:15:25;24.60;79.40
26707;DHT22;14319;49.422;10.934;2023-06-22T09:17:28;24.80;78.20
26707;DHT22;14319;49.422;10.934;2023-06-22T09:19:29;24.80;79.10
26707;DHT22;14319;49.422;10.934;2023-06-22T09:21:30;25.00;79.50
26707;DHT22;14319;49.422;10.934;2023-06-22T09:23:35;25.10;77.70
26707;DHT22;14319;49.422;10.934;2023-06-22T09:25:37;25.20;76.00
26707;DHT22;14319;49.422;10.934;2023-06-22T09:27:38;25.20;75.80
26707;DHT22;14319;49.422;10.934;2023-06-22T09:29:39;25.30;77.40
26707;DHT22;14319;49.422;10.934;2023-06-22T09:31:40;25.30;77.30
26707;DHT22;14319;49.422;10.934;2023-06-22T09:33:42;25.40;75.70
26707;DHT22;14319;49.422;10.934;2023-06-22T09:35:44;25.40;76.10
26707;DHT22;14319;49.422;10.934;2023-06-22T09:37:45;25.40;78.50
26707;DHT22;14319;49.422;10.934;2023-06-22T09:39:46;25.50;75.40
26707;DHT22;14319;49.422;10.934;2023-06-22T09:41:46;25.60;74.70
26707;DHT22;14319;49.422;10.934;2023-06-22T09:43:47;25.70;73.10
26707;DHT22;14319;49.422;10.934;2023-06-22T09:45:51;25.70;73.00
26707;DHT22;14319;49.422;10.934;2023-06-22T09:47:51;25.80;75.60
26707;DHT22;14319;49.422;10.934;2023-06-22T09:49:52;25.80;75.50
26707;DHT22;14319;49.422;10.934;2023-06-22T09:51:52;25.80;75.40
26707;DHT22;14319;49.422;10.934;2023-06-22T09:53:53;25.80;74.10
26707;DHT22;14319;49.422;10.934;2023-06-22T09:55:54;25.80;75.10
26707;DHT22;14319;49.422;10.934;2023-06-22T09:57:55;25.80;74.50
26707;DHT22;14319;49.422;10.934;2023-06-22T09:59:56;25.90;74.80
26707;DHT22;14319;49.422;10.934;2023-06-22T10:01:56;26.00;74.30
26707;DHT22;14319;49.422;10.934;2023-06-22T10:03:57;26.00;74.30
26707;DHT22;14319;49.422;10.934;2023-06-22T10:05:58;26.10;74.00
26707;DHT22;14319;49.422;10.934;2023-06-22T10:07:58;26.00;74.20
26707;DHT22;14319;49.422;10.934;2023-06-22T10:09:59;26.10;74.30
26707;DHT22;14319;49.422;10.934;2023-06-22T10:11:59;26.10;74.20
26707;DHT22;14319;49.422;10.934;2023-06-22T10:14:01;26.20;72.80
26707;DHT22;14319;49.422;10.934;2023-06-22T10:16:02;26.20;70.80
26707;DHT22;14319;49.422;10.934;2023-06-22T10:18:03;26.10;72.40
26707;DHT22;14319;49.422;10.934;2023-06-22T10:20:05;26.30;70.50
26707;DHT22;14319;49.422;10.934;2023-06-22T10:22:13;26.30;71.90
26707;DHT22;14319;49.422;10.934;2023-06-22T10:24:17;26.50;71.40
26707;DHT22;14319;49.422;10.934;2023-06-22T10:26:17;26.50;69.60
26707;DHT22;14319;49.422;10.934;2023-06-22T10:28:18;26.60;70.10
26707;DHT22;14319;49.422;10.934;2023-06-22T10:30:18;26.60;68.40
26707;DHT22;14319;49.422;10.934;2023-06-22T10:32:19;26.60;69.10
26707;DHT22;14319;49.422;10.934;2023-06-22T10:34:20;26.70;70.40
26707;DHT22;14319;49.422;10.934;2023-06-22T10:38:32;26.90;69.10
26707;DHT22;14319;49.422;10.934;2023-06-22T10:40:37;26.70;71.90
26707;DHT22;14319;49.422;10.934;2023-06-22T10:42:40;26.60;68.80
26707;DHT22;14319;49.422;10.934;2023-06-22T10:44:40;26.60;68.30
26707;DHT22;14319;49.422;10.934;2023-06-22T10:46:43;26.70;67.40
26707;DHT22;14319;49.422;10.934;2023-06-22T10:48:46;26.80;68.80
26707;DHT22;14319;49.422;10.934;2023-06-22T10:50:46;26.80;69.10
26707;DHT22;14319;49.422;10.934;2023-06-22T10:52:47;26.80;68.20
26707;DHT22;14319;49.422;10.934;2023-06-22T10:54:48;26.80;70.10
26707;DHT22;14319;49.422;10.934;2023-06-22T10:56:48;26.70;70.60
26707;DHT22;14319;49.422;10.934;2023-06-22T10:58:49;26.80;69.10
26707;DHT22;14319;49.422;10.934;2023-06-22T11:00:50;26.70;70.20
26707;DHT22;14319;49.422;10.934;2023-06-22T11:02:51;26.70;71.40
26707;DHT22;14319;49.422;10.934;2023-06-22T11:04:51;26.80;69.70
26707;DHT22;14319;49.422;10.934;2023-06-22T11:06:52;26.80;68.80
26707;DHT22;14319;49.422;10.934;2023-06-22T11:08:55;26.80;66.50
26707;DHT22;14319;49.422;10.934;2023-06-22T11:11:00;26.90;67.40
26707;DHT22;14319;49.422;10.934;2023-06-22T11:13:03;27.10;69.30
26707;DHT22;14319;49.422;10.934;2023-06-22T11:15:09;27.10;69.00
26707;DHT22;14319;49.422;10.934;2023-06-22T11:17:10;27.20;67.60
26707;DHT22;14319;49.422;10.934;2023-06-22T11:19:11;27.20;66.90
26707;DHT22;14319;49.422;10.934;2023-06-22T11:21:13;27.30;64.80
26707;DHT22;14319;49.422;10.934;2023-06-22T11:23:13;27.40;66.30
26707;DHT22;14319;49.422;10.934;2023-06-22T11:25:15;27.40;66.40
26707;DHT22;14319;49.422;10.934;2023-06-22T11:27:16;27.30;66.50
26707;DHT22;14319;49.422;10.934;2023-06-22T11:29:17;27.30;67.00
26707;DHT22;14319;49.422;10.934;2023-06-22T11:31:19;27.20;67.00
26707;DHT22;14319;49.422;10.934;2023-06-22T11:33:20;27.20;66.90
26707;DHT22;14319;49.422;10.934;2023-06-22T11:35:21;27.30;68.00
26707;DHT22;14319;49.422;10.934;2023-06-22T11:37:22;27.30;67.90
26707;DHT22;14319;49.422;10.934;2023-06-22T11:39:22;27.40;68.70
26707;DHT22;14319;49.422;10.934;2023-06-22T11:41:24;27.40;67.50
26707;DHT22;14319;49.422;10.934;2023-06-22T11:43:30;27.60;66.60
26707;DHT22;14319;49.422;10.934;2023-06-22T11:45:30;27.60;67.50
26707;DHT22;14319;49.422;10.934;2023-06-22T11:47:31;27.50;66.50
26707;DHT22;14319;49.422;10.934;2023-06-22T11:49:32;27.60;66.50
26707;DHT22;14319;49.422;10.934;2023-06-22T11:51:32;27.70;65.40
26707;DHT22;14319;49.422;10.934;2023-06-22T11:53:33;27.70;65.10
26707;DHT22;14319;49.422;10.934;2023-06-22T11:55:34;27.70;66.70
26707;DHT22;14319;49.422;10.934;2023-06-22T11:57:51;27.70;65.70
26707;DHT22;14319;49.422;10.934;2023-06-22T11:59:52;27.70;67.30
26707;DHT22;14319;49.422;10.934;2023-06-22T12:01:52;27.80;67.20
26707;DHT22;14319;49.422;10.934;2023-06-22T12:03:53;27.70;67.40
26707;DHT22;14319;49.422;10.934;2023-06-22T12:05:53;27.80;65.50
26707;DHT22;14319;49.422;10.934;2023-06-22T12:07:54;27.80;64.60
26707;DHT22;14319;49.422;10.934;2023-06-22T12:09:55;27.80;67.20
26707;DHT22;14319;49.422;10.934;2023-06-22T12:11:55;27.80;67.20
26707;DHT22;14319;49.422;10.934;2023-06-22T12:13:56;27.80;65.40
26707;DHT22;14319;49.422;10.934;2023-06-22T12:15:57;27.80;65.20
26707;DHT22;14319;49.422;10.934;2023-06-22T12:17:58;27.90;66.00
26707;DHT22;14319;49.422;10.934;2023-06-22T12:19:59;28.00;65.10
26707;DHT22;14319;49.422;10.934;2023-06-22T12:21:59;28.00;66.50
26707;DHT22;14319;49.422;10.934;2023-06-22T12:24:00;28.10;67.80
26707;DHT22;14319;49.422;10.934;2023-06-22T12:26:00;28.10;67.90
26707;DHT22;14319;49.422;10.934;2023-06-22T12:28:02;28.20;65.40
26707;DHT22;14319;49.422;10.934;2023-06-22T12:30:03;28.40;65.80
26707;DHT22;14319;49.422;10.934;2023-06-22T12:32:04;28.40;67.00
26707;DHT22;14319;49.422;10.934;2023-06-22T12:34:05;28.40;68.70
26707;DHT22;14319;49.422;10.934;2023-06-22T12:36:05;28.50;64.10
26707;DHT22;14319;49.422;10.934;2023-06-22T12:38:06;28.50;65.80
26707;DHT22;14319;49.422;10.934;2023-06-22T12:40:09;28.60;67.90
26707;DHT22;14319;49.422;10.934;2023-06-22T12:42:10;28.70;66.00
26707;DHT22;14319;49.422;10.934;2023-06-22T12:44:12;28.70;66.70